Time;durP1;ratioP1;P1;durP2;ratioP2;P2;SDS_P1;SDS_P2;PMS_P1;PMS_P2;Temp;Humidity;BMP_temperature;BMP_pressure;BME280_temperature;BME280_humidity;BME280_pressure;Samples;Min_cycle;Max_cycle;Signal;HPM_P1;HPM_P2
2022/11/02 00:00:26;;;;;;;26.67;13.52;;;;;;;24.81;41.17;101781.66;5094653;28;20024;-58
2022/11/02 00:02:55;;;;;;;28.45;13.15;;;;;;;24.77;41.36;101782.44;5094724;28;20113;-57
2022/11/02 00:05:24;;;;;;;27.38;13.73;;;;;;;24.78;40.88;101779.84;5094794;28;20099;-57
2022/11/02 00:07:53;;;;;;;27.45;13.60;;;;;;;24.83;40.81;101783.44;5094615;28;20031;-58
2022/11/02 00:10:23;;;;;;;30.98;14.13;;;;;;;24.78;41.26;101792.09;5094141;28;20020;-57
2022/11/02 00:12:52;;;;;;;26.60;12.68;;;;;;;24.76;41.29;101791.16;5094522;28;20089;-59
2022/11/02 00:15:20;;;;;;;25.98;12.38;;;;;;;24.74;41.10;101788.47;5094415;28;20393;-58
2022/11/02 00:17:50;;;;;;;23.15;12.70;;;;;;;24.68;41.24;101789.19;5094539;28;20028;-59
2022/11/02 00:20:20;;;;;;;20.10;10.95;;;;;;;24.80;41.14;101791.25;5094498;28;20062;-59
2022/11/02 00:22:51;;;;;;;20.85;10.88;;;;;;;24.75;41.21;101795.50;5094005;28;20024;-59
2022/11/02 00:25:22;;;;;;;21.27;10.60;;;;;;;24.75;41.09;101797.25;5094535;28;20486;-59
2022/11/02 00:27:50;;;;;;;20.75;10.68;;;;;;;24.70;41.08;101795.41;5094378;28;20470;-58
2022/11/02 00:30:19;;;;;;;21.23;10.07;;;;;;;24.73;41.27;101805.09;5094187;28;20028;-59
2022/11/02 00:32:48;;;;;;;19.23;10.23;;;;;;;24.72;41.32;101805.94;5076188;28;20029;-58
2022/11/02 00:35:17;;;;;;;17.85;9.30;;;;;;;24.69;41.38;101798.84;5093897;28;20039;-58
2022/11/02 00:37:47;;;;;;;20.52;9.27;;;;;;;24.72;41.28;101801.56;5093917;28;20027;-57
2022/11/02 00:40:16;;;;;;;17.05;8.60;;;;;;;24.71;40.91;101806.81;5094164;28;20043;-59
2022/11/02 00:42:44;;;;;;;21.08;9.77;;;;;;;24.68;41.27;101810.19;5093703;28;20024;-58
2022/11/02 00:45:13;;;;;;;19.48;9.52;;;;;;;24.70;41.44;101802.41;5093601;28;20051;-58
2022/11/02 00:47:42;;;;;;;17.55;8.40;;;;;;;24.66;40.94;101811.88;5093113;28;20024;-58
2022/11/02 00:50:10;;;;;;;16.00;8.25;;;;;;;24.67;41.07;101808.41;5093997;28;20028;-56
2022/11/02 00:52:41;;;;;;;15.15;8.05;;;;;;;24.63;41.17;101809.22;5093496;28;20032;-58
2022/11/02 00:55:10;;;;;;;18.33;8.27;;;;;;;24.71;41.27;101812.03;5093785;28;20032;-58
2022/11/02 00:57:40;;;;;;;15.05;7.03;;;;;;;24.75;41.01;101820.88;5093791;28;20024;-58
2022/11/02 01:00:09;;;;;;;17.40;8.05;;;;;;;24.70;40.96;101808.53;5093598;28;20565;-59
2022/11/02 01:02:38;;;;;;;12.70;6.40;;;;;;;24.68;41.02;101810.19;5075502;28;20032;-59
2022/11/02 01:05:08;;;;;;;15.35;7.45;;;;;;;24.68;41.23;101811.94;5093490;28;20028;-58
2022/11/02 01:07:36;;;;;;;13.43;7.05;;;;;;;24.64;41.07;101811.00;5093380;28;20032;-58
2022/11/02 01:10:07;;;;;;;15.13;6.93;;;;;;;24.66;40.96;101809.25;5093657;28;20035;-59
2022/11/02 01:12:38;;;;;;;12.82;6.20;;;;;;;24.64;40.99;101816.22;5093521;28;20023;-57
2022/11/02 01:15:09;;;;;;;13.55;6.32;;;;;;;24.61;41.26;101805.66;5093482;28;20035;-59
2022/11/02 01:17:37;;;;;;;12.93;6.40;;;;;;;24.73;41.06;101808.59;5093102;28;20051;-58
2022/11/02 01:20:06;;;;;;;13.98;6.25;;;;;;;24.73;40.76;101805.09;5093445;28;20102;-54
2022/11/02 01:22:34;;;;;;;13.27;5.53;;;;;;;24.77;40.58;101809.53;5075072;28;20389;-57
2022/11/02 01:25:03;;;;;;;14.50;6.03;;;;;;;24.75;40.63;101795.50;5092935;28;20389;-59
2022/11/02 01:27:32;;;;;;;11.80;5.60;;;;;;;24.78;40.29;101802.56;5093147;28;20180;-57
2022/11/02 01:30:00;;;;;;;16.23;5.82;;;;;;;24.83;40.01;101800.91;5093282;28;20112;-59
2022/11/02 01:32:30;;;;;;;11.27;5.22;;;;;;;24.72;40.38;101800.69;5093067;28;20035;-58
2022/11/02 01:34:59;;;;;;;10.75;4.93;;;;;;;24.69;40.50;101800.59;5093637;28;20489;-58
2022/11/02 01:37:27;;;;;;;10.43;5.20;;;;;;;24.62;40.77;101807.44;5093098;28;20085;-57
2022/11/02 01:39:56;;;;;;;11.13;5.28;;;;;;;24.57;40.76;101799.44;5093272;28;20024;-58
2022/11/02 01:42:26;;;;;;;14.48;5.88;;;;;;;24.58;41.10;101809.06;5093306;28;20080;-58
2022/11/02 01:44:55;;;;;;;12.48;5.22;;;;;;;24.57;40.85;101809.06;5074531;28;20489;-58
2022/11/02 01:47:27;;;;;;;10.50;4.60;;;;;;;24.56;40.77;101807.28;5093131;28;20028;-58
2022/11/02 01:50:05;;;;;;;11.63;4.90;;;;;;;24.58;40.63;101816.06;5093062;28;20129;-58
2022/11/02 01:52:36;;;;;;;9.55;3.92;;;;;;;24.56;40.70;101808.19;5074982;28;20032;-58
2022/11/02 01:55:24;;;;;;;9.25;4.85;;;;;;;24.57;40.73;101812.53;5075040;28;20032;-58
2022/11/02 01:58:02;;;;;;;12.57;5.53;;;;;;;24.53;40.99;101810.72;5092492;28;20028;-58
2022/11/02 02:00:30;;;;;;;9.80;4.30;;;;;;;24.55;40.77;101810.75;5077732;28;20393;-58
2022/11/02 02:03:04;;;;;;;9.30;4.15;;;;;;;24.59;40.81;101809.97;5096853;28;20059;-58
2022/11/02 02:05:36;;;;;;;13.30;4.85;;;;;;;24.60;40.65;101813.47;5097097;28;20019;-58
2022/11/02 02:08:06;;;;;;;9.95;4.40;;;;;;;24.56;40.59;101812.53;5078963;28;20047;-57
2022/11/02 02:10:36;;;;;;;12.82;4.30;;;;;;;24.55;40.45;101809.03;5079541;28;20534;-59
2022/11/02 02:13:06;;;;;;;8.50;3.85;;;;;;;24.51;40.86;101814.13;5096689;28;20071;-59
2022/11/02 02:15:47;;;;;;;8.70;3.60;;;;;;;24.48;40.98;101808.84;5096943;28;20056;-58
2022/11/02 02:18:21;;;;;;;8.30;3.80;;;;;;;24.55;40.56;101809.03;5078802;28;20020;-58
2022/11/02 02:21:04;;;;;;;11.05;4.15;;;;;;;24.49;41.03;101821.13;5096729;28;20366;-59
2022/11/02 02:23:52;;;;;;;8.25;3.35;;;;;;;24.55;40.81;101808.13;5078732;28;20036;-58
2022/11/02 02:26:31;;;;;;;9.57;3.53;;;;;;;24.60;40.62;101814.38;5085798;28;20036;-57
2022/11/02 02:29:03;;;;;;;10.43;3.15;;;;;;;24.51;40.81;101822.00;5079000;28;20101;-58
2022/11/02 02:31:37;;;;;;;8.23;3.70;;;;;;;24.47;40.56;101813.19;5078643;28;20024;-58
2022/11/02 02:34:29;;;;;;;9.02;3.55;;;;;;;24.46;40.86;101823.66;5078716;28;20392;-58
2022/11/02 02:37:01;;;;;;;6.82;3.25;;;;;;;24.47;40.90;101822.81;5054275;28;20037;-58
2022/11/02 02:39:36;;;;;;;11.13;4.07;;;;;;;24.51;40.61;101819.38;5054410;28;20070;-59
2022/11/02 02:42:11;;;;;;;8.48;3.00;;;;;;;24.51;40.62;101814.13;5054342;28;20029;-59
2022/11/02 02:44:41;;;;;;;8.35;3.72;;;;;;;24.53;40.57;101809.81;5053628;28;20136;-58
2022/11/02 02:47:16;;;;;;;10.88;3.33;;;;;;;24.49;40.40;101815.88;5054053;28;20029;-58
2022/11/02 02:49:51;;;;;;;8.30;2.72;;;;;;;24.45;41.05;101814.00;5053950;28;20426;-58
2022/11/02 02:52:21;;;;;;;8.55;3.15;;;;;;;24.46;40.56;101814.03;5053989;28;20040;-58
2022/11/02 02:54:52;;;;;;;8.55;3.05;;;;;;;24.45;40.84;101812.25;5053630;28;20056;-59
2022/11/02 02:57:22;;;;;;;6.45;2.88;;;;;;;24.33;40.85;101793.63;5053667;28;20037;-58
2022/11/02 02:59:50;;;;;;;7.82;3.53;;;;;;;24.43;40.64;101813.97;5053870;28;20179;-59
2022/11/02 03:02:30;;;;;;;7.72;3.38;;;;;;;24.40;40.70;101816.53;5053702;28;20037;-57
2022/11/02 03:04:59;;;;;;;7.07;2.90;;;;;;;24.34;40.83;101808.50;5053375;28;20036;-59
2022/11/02 03:07:30;;;;;;;7.55;3.22;;;;;;;24.37;40.79;101812.06;5067140;28;20067;-59
2022/11/02 03:10:22;;;;;;;7.30;2.60;;;;;;;24.44;40.92;101815.72;5095825;28;20339;-58
2022/11/02 03:13:15;;;;;;;7.35;2.83;;;;;;;24.44;40.44;101810.47;5077714;28;20089;-59
2022/11/02 03:15:58;;;;;;;8.50;2.90;;;;;;;24.40;40.65;101806.91;5095636;28;20035;-58
2022/11/02 03:18:44;;;;;;;6.05;2.22;;;;;;;24.41;40.61;101819.19;5095807;28;20380;-58
2022/11/02 03:21:22;;;;;;;6.60;2.67;;;;;;;24.40;40.64;101814.78;5095598;28;20480;-58
2022/11/02 03:24:09;;;;;;;7.47;2.83;;;;;;;24.38;40.67;101815.59;5077561;28;20036;-58
2022/11/02 03:26:44;;;;;;;9.02;3.03;;;;;;;24.42;40.67;101812.19;5089276;28;20036;-59
2022/11/02 03:29:30;;;;;;;;;;;;;;;24.45;40.58;101814.00;5095993;28;20027;-58
2022/11/02 03:32:04;;;;;;;7.25;2.78;;;;;;;24.41;40.86;101813.94;5084075;28;19912;-59
2022/11/02 03:34:53;;;;;;;6.85;2.67;;;;;;;24.36;40.77;101815.53;5095612;28;20039;-58
2022/11/02 03:37:59;;;;;;;4.93;2.38;;;;;;;24.32;40.90;101810.19;5067635;28;20032;-58
2022/11/02 03:40:35;;;;;;;6.25;2.10;;;;;;;24.36;40.66;101817.28;5095277;28;20031;-59
2022/11/02 03:43:06;;;;;;;8.05;2.60;;;;;;;24.36;40.82;101818.16;5077327;28;20473;-59
2022/11/02 03:45:39;;;;;;;7.40;2.45;;;;;;;24.36;40.61;101814.66;5077395;28;20098;-58
2022/11/02 03:48:10;;;;;;;6.57;2.58;;;;;;;24.32;40.84;101813.72;5077164;28;20025;-56
2022/11/02 03:50:42;;;;;;;5.72;2.33;;;;;;;24.27;40.97;101808.34;5094976;28;20028;-59
2022/11/02 03:53:15;;;;;;;7.18;2.65;;;;;;;24.24;40.78;101810.88;5077261;28;20205;-59
2022/11/02 03:55:51;;;;;;;6.38;2.28;;;;;;;24.19;40.83;101809.88;5077173;28;20024;-58
2022/11/02 03:58:19;;;;;;;6.28;2.40;;;;;;;24.26;40.65;101818.78;5077184;28;20028;-58
2022/11/02 04:00:53;;;;;;;6.40;2.17;;;;;;;24.26;41.09;101818.78;5094795;28;20158;-58
2022/11/02 04:03:22;;;;;;;6.15;1.83;;;;;;;24.23;41.13;101805.59;5076878;28;20024;-58
2022/11/02 04:05:51;;;;;;;5.45;2.00;;;;;;;24.21;40.90;101812.53;5076896;28;20031;-58
2022/11/02 04:08:28;;;;;;;6.32;2.30;;;;;;;24.21;41.17;101813.44;5094895;28;20103;-58
2022/11/02 04:16:31;;;;;;;6.10;2.28;;;;;;;24.21;40.82;101818.69;5082986;28;20438;-57
2022/11/02 04:19:42;;;;;;;7.00;2.20;;;;;;;24.22;40.77;101815.22;5094600;28;20020;-58
2022/11/02 04:27:21;;;;;;;6.07;1.83;;;;;;;24.19;41.10;101816.84;5087153;28;20233;-58
2022/11/02 04:29:50;;;;;;;6.03;2.20;;;;;;;24.09;40.93;101808.75;5094056;28;20473;-56
2022/11/02 04:33:31;;;;;;;6.45;2.20;;;;;;;24.10;41.21;101815.78;5094395;28;20032;-58
2022/11/02 04:35:06;;;;;;;4.68;1.90;;;;;;;24.14;40.97;101818.50;5093988;28;20429;-58
2022/11/02 04:40:31;;;;;;;5.47;2.33;;;;;;;24.14;40.77;101815.88;5082992;28;20092;-59
2022/11/02 04:43:00;;;;;;;8.07;2.30;;;;;;;24.14;40.99;101813.25;5093863;28;20043;-57
2022/11/02 04:45:28;;;;;;;6.80;2.33;;;;;;;24.12;40.89;101816.72;5093865;28;20048;-58
2022/11/02 04:48:01;;;;;;;5.40;1.73;;;;;;;24.11;40.93;101820.19;5093808;28;20085;-58
2022/11/02 04:50:29;;;;;;;6.18;2.33;;;;;;;24.10;41.36;101826.28;5093907;28;20020;-58
2022/11/02 04:52:59;;;;;;;6.78;2.00;;;;;;;24.01;41.18;101812.91;5094083;28;20099;-59
2022/11/02 04:55:29;;;;;;;6.82;2.10;;;;;;;24.13;40.78;101822.81;5093643;28;20108;-58
2022/11/02 04:57:57;;;;;;;5.03;1.98;;;;;;;24.16;40.65;101829.91;5093900;28;20122;-59
2022/11/02 05:00:26;;;;;;;6.68;1.70;;;;;;;24.11;40.78;101828.03;5093648;28;20145;-59
2022/11/02 05:02:54;;;;;;;6.07;1.67;;;;;;;24.09;41.00;101826.22;5093645;28;20081;-58
2022/11/02 05:05:21;;;;;;;4.70;2.03;;;;;;;24.07;41.23;101828.81;5093882;28;20030;-59
2022/11/02 05:07:50;;;;;;;4.13;1.38;;;;;;;24.12;41.08;101829.81;5093489;28;20059;-59
2022/11/02 05:10:18;;;;;;;6.60;2.00;;;;;;;24.12;40.99;101821.06;5075527;28;20485;-59
2022/11/02 05:12:47;;;;;;;5.90;1.98;;;;;;;24.12;41.13;101829.81;5093763;28;20028;-58
2022/11/02 05:15:15;;;;;;;6.78;2.38;;;;;;;24.08;40.92;101817.47;5093353;28;20381;-58
2022/11/02 05:17:45;;;;;;;5.32;2.15;;;;;;;24.10;40.89;101823.66;5093653;28;20028;-58
2022/11/02 05:20:14;;;;;;;4.55;1.70;;;;;;;24.07;41.17;101822.69;5075849;28;20040;-56
2022/11/02 05:22:43;;;;;;;5.45;1.80;;;;;;;24.07;40.89;101825.31;5093654;28;20031;-57
2022/11/02 05:25:12;;;;;;;5.85;1.90;;;;;;;24.09;41.08;101824.50;5093241;28;20039;-57
2022/11/02 05:27:40;;;;;;;3.92;1.80;;;;;;;24.07;40.79;101820.94;5093246;28;20032;-56
2022/11/02 05:30:09;;;;;;;4.75;1.88;;;;;;;24.08;41.07;101816.56;5093164;28;20035;-58
2022/11/02 05:32:38;;;;;;;6.57;1.98;;;;;;;24.03;40.81;101813.84;5093492;28;20028;-58
2022/11/02 05:35:07;;;;;;;4.93;1.60;;;;;;;24.03;41.06;101816.47;5092658;28;20120;-58
2022/11/02 05:37:35;;;;;;;4.72;1.80;;;;;;;24.06;41.22;101816.53;5093237;28;20028;-58
2022/11/02 05:40:03;;;;;;;5.65;1.90;;;;;;;24.05;41.13;101813.91;5093030;28;20030;-58
2022/11/02 05:42:33;;;;;;;7.70;1.98;;;;;;;24.03;41.09;101816.47;5093144;28;20024;-58
2022/11/02 05:45:06;;;;;;;5.82;1.80;;;;;;;24.03;41.01;101805.97;5072625;28;20421;-59
2022/11/02 05:47:34;;;;;;;4.95;1.73;;;;;;;24.03;40.75;101813.84;5055089;28;20040;-58
2022/11/02 05:50:03;;;;;;;5.03;1.75;;;;;;;24.04;41.15;101812.13;5072775;28;20071;-58
2022/11/02 05:52:31;;;;;;;6.75;2.20;;;;;;;24.03;40.92;101808.59;5072517;28;20028;-57
2022/11/02 05:54:59;;;;;;;5.57;1.65;;;;;;;24.00;40.99;101802.41;5072959;28;20025;-56
2022/11/02 05:57:28;;;;;;;4.13;1.65;;;;;;;24.03;40.70;101805.97;5054623;28;20111;-58
2022/11/02 05:59:56;;;;;;;5.45;1.50;;;;;;;24.07;40.73;101799.97;5072893;28;20020;-58
2022/11/02 06:02:25;;;;;;;4.75;1.98;;;;;;;24.07;40.61;101793.84;5072316;28;20407;-57
2022/11/02 06:04:54;;;;;;;7.28;2.05;;;;;;;23.89;40.95;101771.53;5072936;28;20466;-58
2022/11/02 06:07:22;;;;;;;5.47;1.55;;;;;;;24.03;40.77;101789.38;5072815;28;20024;-58
2022/11/02 06:09:49;;;;;;;5.10;2.03;;;;;;;24.05;40.81;101795.53;5075176;28;20039;-58
2022/11/02 06:12:18;;;;;;;8.07;2.10;;;;;;;24.00;40.60;101794.53;5063651;28;20021;-58
2022/11/02 06:14:46;;;;;;;6.15;1.92;;;;;;;24.03;40.55;101792.00;5081645;28;20024;-59
2022/11/02 06:17:14;;;;;;;5.88;1.80;;;;;;;24.00;41.01;101799.78;5092639;28;20133;-59
2022/11/02 06:19:42;;;;;;;4.95;1.77;;;;;;;23.96;41.09;101802.31;5089853;28;20013;-58
2022/11/02 06:22:11;;;;;;;6.00;2.38;;;;;;;24.00;40.50;101810.25;5083871;28;20024;-58
2022/11/02 06:24:38;;;;;;;7.82;2.45;;;;;;;24.00;40.67;101807.63;5086824;28;20051;-58
2022/11/02 06:27:06;;;;;;;7.93;2.22;;;;;;;24.02;40.47;101805.94;5092284;28;20032;-56
2022/11/02 06:29:35;;;;;;;7.43;1.90;;;;;;;23.97;40.86;101801.47;5091440;28;20025;-58
2022/11/02 06:32:02;;;;;;;6.57;1.73;;;;;;;23.95;40.88;101802.25;5092538;28;20825;-58
2022/11/02 06:34:31;;;;;;;6.88;2.30;;;;;;;23.96;41.00;101796.16;5092741;28;20028;-58
2022/11/02 06:36:59;;;;;;;5.38;1.70;;;;;;;23.97;40.40;101797.97;5092406;28;20028;-57
2022/11/02 06:39:28;;;;;;;6.65;1.90;;;;;;;23.95;40.66;101797.00;5091113;28;20032;-57
2022/11/02 06:41:56;;;;;;;8.48;2.17;;;;;;;23.91;40.80;101792.53;5092355;28;20393;-56
2022/11/02 06:44:24;;;;;;;5.93;2.17;;;;;;;23.96;40.66;101801.41;5092262;28;20044;-56
2022/11/02 06:46:53;;;;;;;5.53;1.77;;;;;;;23.86;41.15;101810.75;5076738;28;20051;-58
2022/11/02 06:49:21;;;;;;;8.65;2.33;;;;;;;23.97;40.62;101805.84;5096438;28;20035;-59
2022/11/02 06:51:52;;;;;;;9.45;2.20;;;;;;;23.94;40.87;101814.44;5096130;28;20489;-58
2022/11/02 06:54:20;;;;;;;6.75;2.05;;;;;;;23.94;40.61;101803.09;5096071;28;20158;-58
2022/11/02 06:56:49;;;;;;;5.00;2.10;;;;;;;23.86;41.01;101808.13;5095948;28;20034;-58
2022/11/02 06:59:18;;;;;;;6.20;2.35;;;;;;;23.89;40.74;101800.34;5096247;28;20026;-56
2022/11/02 07:01:52;;;;;;;5.07;1.80;;;;;;;23.91;40.70;101810.88;5095930;28;20378;-58
2022/11/02 07:04:21;;;;;;;5.25;2.10;;;;;;;23.90;40.93;101801.22;5078729;28;20036;-58
2022/11/02 07:06:50;;;;;;;6.45;1.67;;;;;;;23.83;40.70;101801.06;5095919;28;20032;-58
2022/11/02 07:09:18;;;;;;;7.05;1.88;;;;;;;23.91;40.88;101806.50;5096076;28;20027;-58
2022/11/02 07:11:47;;;;;;;9.52;2.20;;;;;;;23.93;40.91;101811.78;5095635;28;20389;-59
2022/11/02 07:14:15;;;;;;;10.60;2.20;;;;;;;23.89;41.03;101816.09;5095805;28;20366;-59
2022/11/02 07:16:43;;;;;;;9.48;1.98;;;;;;;23.87;40.97;101803.75;5095705;28;20546;-58
2022/11/02 07:19:11;;;;;;;4.63;1.60;;;;;;;23.89;40.84;101799.44;5095897;28;20030;-57
2022/11/02 07:21:40;;;;;;;7.47;2.05;;;;;;;23.96;40.54;101807.56;5095915;28;20081;-57
2022/11/02 07:24:08;;;;;;;6.50;1.73;;;;;;;23.88;40.71;101790.72;5095448;28;20028;-57
2022/11/02 07:26:37;;;;;;;5.22;2.15;;;;;;;23.91;40.69;101792.53;5095768;28;20052;-57
2022/11/02 07:29:05;;;;;;;5.25;2.15;;;;;;;23.84;40.73;101796.72;5077854;28;20024;-57
2022/11/02 07:31:34;;;;;;;7.03;1.90;;;;;;;23.85;41.03;101798.50;5095313;28;20481;-57
2022/11/02 07:34:02;;;;;;;9.32;2.38;;;;;;;23.81;41.17;101788.75;5095462;28;20055;-57
2022/11/02 07:36:31;;;;;;;8.13;2.60;;;;;;;23.81;41.04;101796.63;5095119;28;20027;-57
2022/11/02 07:38:59;;;;;;;8.13;2.50;;;;;;;23.78;41.06;101789.59;5095385;28;20040;-57
2022/11/02 07:41:27;;;;;;;6.15;1.75;;;;;;;23.77;41.14;101800.91;5076915;28;20069;-57
2022/11/02 07:43:56;;;;;;;6.63;1.70;;;;;;;23.76;41.13;101791.28;5095055;28;20047;-57
2022/11/02 07:46:24;;;;;;;7.05;2.00;;;;;;;23.84;40.87;101791.47;5095096;28;20110;-58
2022/11/02 07:48:53;;;;;;;10.20;2.65;;;;;;;23.82;40.85;101793.16;5095029;28;20027;-57
2022/11/02 07:51:22;;;;;;;6.90;1.98;;;;;;;23.80;40.84;101790.50;5095151;28;20031;-57
2022/11/02 07:53:50;;;;;;;7.55;2.15;;;;;;;23.86;40.46;101800.28;5094734;28;20024;-58
2022/11/02 07:56:19;;;;;;;7.30;2.40;;;;;;;23.87;40.79;101799.44;5094692;28;20028;-57
2022/11/02 07:58:47;;;;;;;9.18;2.15;;;;;;;23.82;40.66;101801.03;5094761;28;20107;-57
2022/11/02 08:01:16;;;;;;;5.45;1.95;;;;;;;23.83;40.55;101793.19;5095004;28;20016;-58
2022/11/02 08:03:44;;;;;;;8.43;2.35;;;;;;;23.86;40.59;101804.59;5094483;28;20388;-57
2022/11/02 08:06:13;;;;;;;8.90;2.38;;;;;;;23.96;40.58;101799.69;5094744;28;20028;-57
2022/11/02 08:08:41;;;;;;;8.85;2.20;;;;;;;23.94;40.62;101813.56;5094947;28;20028;-57
2022/11/02 08:11:10;;;;;;;9.35;2.55;;;;;;;24.01;40.18;101804.16;5094576;28;20035;-58
2022/11/02 08:13:39;;;;;;;7.35;2.15;;;;;;;24.00;40.34;101802.41;5094628;28;20028;-58
2022/11/02 08:16:08;;;;;;;11.13;2.25;;;;;;;24.01;40.32;101804.16;5076391;28;20024;-58
2022/11/02 08:18:36;;;;;;;9.77;2.65;;;;;;;23.99;40.20;101801.53;5094561;28;20122;-58
2022/11/02 08:21:05;;;;;;;9.05;2.33;;;;;;;23.93;40.46;101796.94;5094484;28;20024;-58
2022/11/02 08:23:33;;;;;;;5.85;2.35;;;;;;;23.96;40.67;101804.03;5093952;28;20032;-58
2022/11/02 08:26:02;;;;;;;6.88;2.03;;;;;;;23.91;40.57;101805.63;5094183;28;20035;-57
2022/11/02 08:28:34;;;;;;;5.70;1.85;;;;;;;23.94;40.69;101816.19;5094467;28;20050;-58
2022/11/02 08:31:03;;;;;;;5.93;1.80;;;;;;;23.93;40.94;101817.03;5094557;28;20024;-58
2022/11/02 08:33:32;;;;;;;6.68;2.03;;;;;;;23.87;40.70;101809.00;5094173;28;20031;-58
2022/11/02 08:36:04;;;;;;;9.27;2.05;;;;;;;23.78;40.64;101797.44;5094273;28;20031;-52
2022/11/02 08:38:33;;;;;;;8.32;2.15;;;;;;;23.90;40.76;101811.72;5094279;28;20051;-57
2022/11/02 08:41:01;;;;;;;8.68;2.30;;;;;;;23.91;40.51;101805.63;5094218;28;20534;-56
2022/11/02 08:43:29;;;;;;;7.50;2.22;;;;;;;23.95;40.39;101810.97;5092392;28;20044;-58
2022/11/02 08:45:59;;;;;;;9.43;2.42;;;;;;;23.96;40.39;101804.94;5093985;28;20031;-58
2022/11/02 08:48:27;;;;;;;6.45;1.73;;;;;;;24.00;40.67;101816.38;5094112;28;20050;-58
2022/11/02 08:50:55;;;;;;;10.13;2.65;;;;;;;23.93;40.89;101817.03;5093900;28;20024;-57
2022/11/02 08:53:24;;;;;;;7.45;2.30;;;;;;;23.91;40.51;101813.50;5076067;28;20051;-58
2022/11/02 08:55:52;;;;;;;8.38;2.42;;;;;;;23.97;40.73;101813.69;5093788;28;20481;-58
2022/11/02 08:58:20;;;;;;;8.40;1.90;;;;;;;23.88;40.79;101798.56;5093686;28;20024;-58
2022/11/02 09:00:49;;;;;;;9.00;2.47;;;;;;;23.94;40.40;101814.44;5075983;28;20028;-58
2022/11/02 09:03:18;;;;;;;8.45;2.33;;;;;;;23.94;40.87;101810.94;5075762;28;20132;-58
2022/11/02 09:05:47;;;;;;;10.55;2.45;;;;;;;23.89;40.65;101815.16;5093680;28;20085;-58
2022/11/02 09:08:18;;;;;;;6.82;2.50;;;;;;;23.93;40.96;101817.91;5093483;28;20103;-58
2022/11/02 09:10:48;;;;;;;8.43;1.92;;;;;;;23.89;40.55;101810.84;5093415;28;20477;-58
2022/11/02 09:13:19;;;;;;;8.52;2.50;;;;;;;23.92;40.88;101796.91;5093277;28;20036;-58
2022/11/02 09:15:51;;;;;;;7.60;2.03;;;;;;;23.86;40.78;101781.94;5093437;28;20522;-58
2022/11/02 09:18:20;;;;;;;7.30;2.08;;;;;;;24.03;40.32;101802.47;5075608;28;20032;-58
2022/11/02 09:20:50;;;;;;;7.97;2.08;;;;;;;24.05;40.28;101806.03;5093401;28;20099;-58
2022/11/02 09:23:20;;;;;;;9.38;2.47;;;;;;;24.03;40.69;101792.88;5075531;28;20146;-58
2022/11/02 09:25:50;;;;;;;7.05;2.25;;;;;;;24.06;40.31;101803.44;5093823;28;20498;-57
2022/11/02 09:28:18;;;;;;;6.72;2.10;;;;;;;24.02;40.45;101795.47;5092951;28;20024;-57
2022/11/02 09:30:47;;;;;;;8.90;2.20;;;;;;;23.98;40.86;101789.25;5093409;28;20537;-58
2022/11/02 09:33:15;;;;;;;9.40;2.35;;;;;;;24.01;40.72;101789.31;5093240;28;20036;-58
2022/11/02 09:35:46;;;;;;;5.25;1.98;;;;;;;23.96;40.85;101786.59;5093183;28;20469;-58
2022/11/02 09:38:17;;;;;;;6.85;2.60;;;;;;;24.02;40.81;101779.72;5093264;28;20115;-57
2022/11/02 09:40:54;;;;;;;6.90;2.17;;;;;;;23.96;40.84;101777.81;5093113;28;20051;-58
2022/11/02 09:43:49;;;;;;;8.45;2.33;;;;;;;23.98;40.91;101778.78;5092816;28;20020;-57
2022/11/02 09:46:28;;;;;;;7.95;1.92;;;;;;;24.01;40.72;101770.09;5086545;28;20126;-58
2022/11/02 09:49:18;;;;;;;7.80;2.53;;;;;;;24.03;40.90;101769.28;5093057;28;20047;-57
2022/11/02 09:51:46;;;;;;;7.60;2.08;;;;;;;24.06;40.53;101766.75;5086217;28;20036;-58
2022/11/02 09:54:45;;;;;;;7.70;2.33;;;;;;;24.02;40.69;101762.25;5075247;28;20028;-57
2022/11/02 09:57:29;;;;;;;6.95;1.88;;;;;;;24.08;40.92;101757.19;5067191;28;20036;-57
2022/11/02 09:59:57;;;;;;;6.40;1.80;;;;;;;24.08;40.38;101753.66;5092742;28;20066;-57
2022/11/02 10:02:27;;;;;;;7.90;2.30;;;;;;;24.09;40.77;101756.34;5092994;28;20028;-57
2022/11/02 10:05:15;;;;;;;7.68;2.40;;;;;;;24.15;40.82;101752.09;5092705;28;20166;-58
2022/11/02 10:08:04;;;;;;;8.45;2.25;;;;;;;24.12;40.93;101745.94;5093096;28;20043;-57
2022/11/02 10:10:37;;;;;;;9.30;3.15;;;;;;;24.09;40.66;101745.84;5083410;28;20050;-57
2022/11/02 10:13:08;;;;;;;7.97;2.20;;;;;;;24.17;40.54;101743.41;5074900;28;20526;-57
2022/11/02 10:15:46;;;;;;;8.07;2.20;;;;;;;24.16;40.77;101740.78;5092731;28;20028;-58
2022/11/02 10:18:20;;;;;;;8.18;2.45;;;;;;;24.12;40.80;101735.44;5092998;28;20465;-57
2022/11/02 10:20:53;;;;;;;7.95;2.17;;;;;;;24.12;41.09;101730.22;5094696;28;20106;-57
2022/11/02 10:23:36;;;;;;;7.30;2.10;;;;;;;24.18;40.53;101726.84;5095994;28;20102;-57
2022/11/02 10:26:04;;;;;;;8.77;2.33;;;;;;;24.20;40.89;101726.88;5096527;28;20036;-57
2022/11/02 10:28:36;;;;;;;6.43;2.05;;;;;;;24.16;40.72;101725.06;5096682;28;20063;-58
2022/11/02 10:31:08;;;;;;;7.57;1.90;;;;;;;24.12;40.76;101729.31;5096595;28;20024;-57
2022/11/02 10:33:38;;;;;;;8.20;2.05;;;;;;;24.14;40.76;101726.75;5078996;28;20061;-58
2022/11/02 10:36:28;;;;;;;7.28;2.17;;;;;;;24.09;41.04;101727.50;5096408;28;20442;-57
2022/11/02 10:39:16;;;;;;;8.55;2.25;;;;;;;24.19;41.04;101725.09;5087722;28;20028;-57
2022/11/02 10:42:07;;;;;;;10.95;2.55;;;;;;;24.21;40.68;101715.53;5096205;28;20062;-58
2022/11/02 10:44:43;;;;;;;7.45;2.35;;;;;;;24.20;40.79;101719.00;5080535;28;20047;-58
2022/11/02 10:47:15;;;;;;;12.00;2.50;;;;;;;24.21;40.82;101711.19;5096505;28;20031;-58
2022/11/02 10:49:45;;;;;;;10.02;3.13;;;;;;;24.21;40.73;101719.06;5096164;28;20028;-58
2022/11/02 10:52:15;;;;;;;7.43;2.28;;;;;;;24.18;41.10;101720.69;5096246;28;20134;-57
2022/11/02 10:54:44;;;;;;;7.97;2.70;;;;;;;24.15;40.96;101705.78;5096262;28;20031;-57
2022/11/02 10:57:14;;;;;;;8.95;2.88;;;;;;;24.14;41.03;101711.00;5096057;28;20028;-58
2022/11/02 10:59:43;;;;;;;7.13;2.10;;;;;;;24.16;41.00;101697.09;5096025;28;20557;-57
2022/11/02 11:02:14;;;;;;;11.20;2.53;;;;;;;24.12;41.29;101704.00;5095845;28;20511;-57
2022/11/02 11:04:43;;;;;;;8.30;2.38;;;;;;;24.17;40.98;101705.81;5095765;28;20477;-58
2022/11/02 11:07:22;;;;;;;6.07;2.00;;;;;;;24.15;41.03;101703.16;5078102;28;20043;-58
2022/11/02 11:09:52;;;;;;;9.25;2.38;;;;;;;24.13;41.05;101704.88;5096453;28;20107;-58
2022/11/02 11:12:33;;;;;;;8.57;1.90;;;;;;;24.19;41.29;101698.88;5077895;28;20028;-56
2022/11/02 11:15:03;;;;;;;7.10;2.15;;;;;;;24.17;41.08;101690.09;5078048;28;20039;-58
2022/11/02 11:17:33;;;;;;;8.80;2.22;;;;;;;24.19;41.47;101688.38;5078068;28;20039;-58
2022/11/02 11:20:04;;;;;;;12.75;2.97;;;;;;;24.14;41.30;101685.66;5095824;28;20026;-58
2022/11/02 11:22:36;;;;;;;8.50;2.42;;;;;;;24.15;41.24;101678.72;5095850;28;20030;-58
2022/11/02 11:25:23;;;;;;;11.30;2.50;;;;;;;24.12;41.55;101674.25;5095626;28;20107;-58
2022/11/02 11:27:54;;;;;;;7.78;2.50;;;;;;;24.16;41.38;101676.09;5094573;28;20038;-56
2022/11/02 11:30:27;;;;;;;8.07;2.80;;;;;;;24.19;41.15;101678.81;5095796;28;20103;-57
2022/11/02 11:32:58;;;;;;;9.27;2.45;;;;;;;24.20;41.28;101667.47;5094770;28;20457;-58
2022/11/02 11:35:33;;;;;;;10.10;2.72;;;;;;;24.16;41.64;101670.88;5095353;28;20047;-57
2022/11/02 11:38:03;;;;;;;;;;;;;;;24.24;41.42;101664.03;5094708;28;20075;-57
2022/11/02 11:40:45;;;;;;;6.55;2.20;;;;;;;24.23;41.58;101662.31;5077746;28;19943;-56
2022/11/02 11:43:16;;;;;;;7.53;2.97;;;;;;;24.26;41.26;101657.09;5076865;28;20028;-57
2022/11/02 11:46:04;;;;;;;10.25;2.47;;;;;;;24.23;41.68;101643.06;5095467;28;20477;-58
2022/11/02 11:48:39;;;;;;;9.32;2.30;;;;;;;24.24;41.58;101640.44;5077270;28;20115;-57
2022/11/02 11:51:27;;;;;;;7.90;2.20;;;;;;;24.22;41.59;101625.56;5095141;28;20028;-57
2022/11/02 11:54:34;;;;;;;9.25;2.53;;;;;;;24.20;41.73;101633.41;5087040;28;20032;-57
2022/11/02 11:57:40;;;;;;;7.88;2.03;;;;;;;24.28;41.39;101625.69;5094473;28;20410;-58
2022/11/02 12:00:27;;;;;;;13.27;3.00;;;;;;;24.29;41.66;101632.72;5094669;28;20074;-57